sensor_id;sensor_type;location;lat;lon;timestamp;pressure;altitude;pressure_sealevel;temperature;humidity
59055;BME280;44845;51.444;7.460;2023-02-08T00:00:21;102011.34;;;0.43;66.72
59055;BME280;44845;51.444;7.460;2023-02-08T00:02:47;102004.50;;;0.44;66.58
59055;BME280;44845;51.444;7.460;2023-02-08T00:05:12;102008.09;;;0.46;65.97
59055;BME280;44845;51.444;7.460;2023-02-08T00:07:37;102003.69;;;0.45;66.04
59055;BME280;44845;51.444;7.460;2023-02-08T00:10:03;102010.66;;;0.46;66.26
59055;BME280;44845;51.444;7.460;2023-02-08T00:14:58;102008.84;;;0.45;65.99
59055;BME280;44845;51.444;7.460;2023-02-08T00:17:23;102003.97;;;0.36;66.50
59055;BME280;44845;51.444;7.460;2023-02-08T00:19:49;102003.84;;;0.35;66.11
59055;BME280;44845;51.444;7.460;2023-02-08T00:22:14;102010.03;;;0.37;65.81
59055;BME280;44845;51.444;7.460;2023-02-08T00:24:39;102006.13;;;0.30;66.18
59055;BME280;44845;51.444;7.460;2023-02-08T00:27:05;102004.88;;;0.37;65.92
59055;BME280;44845;51.444;7.460;2023-02-08T00:29:30;102004.88;;;0.37;65.33
59055;BME280;44845;51.444;7.460;2023-02-08T00:31:56;101996.09;;;0.35;65.36
59055;BME280;44845;51.444;7.460;2023-02-08T00:34:21;101999.72;;;0.25;66.07
59055;BME280;44845;51.444;7.460;2023-02-08T00:36:46;102001.06;;;0.31;65.69
59055;BME280;44845;51.444;7.460;2023-02-08T00:39:12;101999.28;;;0.30;66.09
59055;BME280;44845;51.444;7.460;2023-02-08T00:41:37;102003.16;;;0.37;65.46
59055;BME280;44845;51.444;7.460;2023-02-08T00:44:03;101999.50;;;0.33;65.95
59055;BME280;44845;51.444;7.460;2023-02-08T00:46:28;101996.09;;;0.35;65.49
59055;BME280;44845;51.444;7.460;2023-02-08T00:48:53;101993.19;;;0.30;66.17
59055;BME280;44845;51.444;7.460;2023-02-08T00:51:19;101994.78;;;0.28;66.19
59055;BME280;44845;51.444;7.460;2023-02-08T00:53:44;101991.91;;;0.23;66.41
59055;BME280;44845;51.444;7.460;2023-02-08T00:56:12;101985.72;;;0.21;67.10
59055;BME280;44845;51.444;7.460;2023-02-08T00:58:37;101979.00;;;0.23;66.76
59055;BME280;44845;51.444;7.460;2023-02-08T01:01:04;101986.28;;;0.29;65.79
59055;BME280;44845;51.444;7.460;2023-02-08T01:03:32;101980.97;;;0.27;66.14
59055;BME280;44845;51.444;7.460;2023-02-08T01:06:02;101981.09;;;0.29;66.28
59055;BME280;44845;51.444;7.460;2023-02-08T01:08:28;101978.22;;;0.24;66.06
59055;BME280;44845;51.444;7.460;2023-02-08T01:11:02;101976.63;;;0.26;66.18
59055;BME280;44845;51.444;7.460;2023-02-08T01:13:28;101971.84;;;0.19;66.46
59055;BME280;44845;51.444;7.460;2023-02-08T01:15:54;101978.88;;;0.21;66.06
59055;BME280;44845;51.444;7.460;2023-02-08T01:18:19;101968.75;;;0.25;65.98
59055;BME280;44845;51.444;7.460;2023-02-08T01:20:44;101967.44;;;0.18;65.73
59055;BME280;44845;51.444;7.460;2023-02-08T01:23:10;101967.66;;;0.21;65.24
59055;BME280;44845;51.444;7.460;2023-02-08T01:25:35;101967.44;;;0.18;65.04
59055;BME280;44845;51.444;7.460;2023-02-08T01:28:00;101972.19;;;0.12;65.11
59055;BME280;44845;51.444;7.460;2023-02-08T01:30:26;101968.81;;;0.13;64.82
59055;BME280;44845;51.444;7.460;2023-02-08T01:32:51;101971.59;;;0.16;65.02
59055;BME280;44845;51.444;7.460;2023-02-08T01:35:17;101969.50;;;0.10;65.20
59055;BME280;44845;51.444;7.460;2023-02-08T01:37:42;101971.59;;;0.16;64.96
59055;BME280;44845;51.444;7.460;2023-02-08T01:40:08;101960.88;;;0.09;65.17
59055;BME280;44845;51.444;7.460;2023-02-08T01:42:33;101975.78;;;0.14;64.85
59055;BME280;44845;51.444;7.460;2023-02-08T01:45:18;101972.66;;;0.06;65.55
59055;BME280;44845;51.444;7.460;2023-02-08T01:48:01;101972.66;;;0.06;65.61
59055;BME280;44845;51.444;7.460;2023-02-08T01:50:33;101969.31;;;0.07;65.68
59055;BME280;44845;51.444;7.460;2023-02-08T01:53:00;101963.47;;;0.09;65.77
59055;BME280;44845;51.444;7.460;2023-02-08T01:55:31;101962.88;;;0.14;65.70
59055;BME280;44845;51.444;7.460;2023-02-08T01:58:00;101960.88;;;0.09;65.29
59055;BME280;44845;51.444;7.460;2023-02-08T02:00:27;101956.28;;;0.05;65.33
59055;BME280;44845;51.444;7.460;2023-02-08T02:02:54;101955.41;;;0.05;64.88
59055;BME280;44845;51.444;7.460;2023-02-08T02:05:24;101956.50;;;0.08;64.34
59055;BME280;44845;51.444;7.460;2023-02-08T02:07:51;101952.91;;;0.06;64.40
59055;BME280;44845;51.444;7.460;2023-02-08T02:10:24;101947.75;;;0.06;64.63
59055;BME280;44845;51.444;7.460;2023-02-08T02:12:50;101948.34;;;0.02;65.16
59055;BME280;44845;51.444;7.460;2023-02-08T02:15:17;101946.63;;;0.03;65.36
59055;BME280;44845;51.444;7.460;2023-02-08T02:17:42;101947.34;;;0.00;65.04
59055;BME280;44845;51.444;7.460;2023-02-08T02:20:17;101946.31;;;-0.02;64.79
59055;BME280;44845;51.444;7.460;2023-02-08T02:25:51;101952.28;;;-0.03;65.38
59055;BME280;44845;51.444;7.460;2023-02-08T02:34:08;101949.56;;;-0.05;65.92
59055;BME280;44845;51.444;7.460;2023-02-08T02:39:44;101950.25;;;-0.07;66.32
59055;BME280;44845;51.444;7.460;2023-02-08T02:42:27;101939.75;;;-0.10;66.19
59055;BME280;44845;51.444;7.460;2023-02-08T02:45:25;101943.69;;;-0.16;65.76
59055;BME280;44845;51.444;7.460;2023-02-08T02:48:11;101934.34;;;-0.14;65.50
59055;BME280;44845;51.444;7.460;2023-02-08T02:50:48;101937.94;;;-0.12;64.92
59055;BME280;44845;51.444;7.460;2023-02-08T02:53:38;101934.34;;;-0.14;64.72
59055;BME280;44845;51.444;7.460;2023-02-08T02:56:12;101929.88;;;-0.16;65.11
59055;BME280;44845;51.444;7.460;2023-02-08T02:58:41;101934.13;;;-0.17;65.13
59055;BME280;44845;51.444;7.460;2023-02-08T03:01:07;101924.13;;;-0.12;64.70
59055;BME280;44845;51.444;7.460;2023-02-08T03:03:33;101925.63;;;-0.16;65.16
59055;BME280;44845;51.444;7.460;2023-02-08T03:06:09;101919.56;;;-0.16;64.62
59055;BME280;44845;51.444;7.460;2023-02-08T03:11:37;101926.22;;;-0.20;64.27
59055;BME280;44845;51.444;7.460;2023-02-08T03:17:02;101917.22;;;-0.13;64.24
59055;BME280;44845;51.444;7.460;2023-02-08T03:19:38;101921.16;;;-0.18;64.57
59055;BME280;44845;51.444;7.460;2023-02-08T03:22:20;101921.56;;;-0.12;64.07
59055;BME280;44845;51.444;7.460;2023-02-08T03:24:53;101924.03;;;-0.14;64.25
59055;BME280;44845;51.444;7.460;2023-02-08T03:28:17;101922.25;;;-0.15;63.60
59055;BME280;44845;51.444;7.460;2023-02-08T03:36:13;101925.63;;;-0.16;63.14
59055;BME280;44845;51.444;7.460;2023-02-08T03:38:42;101920.03;;;-0.22;63.34
59055;BME280;44845;51.444;7.460;2023-02-08T03:41:13;101918.94;;;-0.26;62.85
59055;BME280;44845;51.444;7.460;2023-02-08T03:43:43;101923.63;;;-0.20;63.49
59055;BME280;44845;51.444;7.460;2023-02-08T03:46:15;101919.47;;;-0.18;63.03
59055;BME280;44845;51.444;7.460;2023-02-08T03:48:46;101930.56;;;-0.19;62.78
59055;BME280;44845;51.444;7.460;2023-02-08T03:51:14;101930.56;;;-0.19;62.64
59055;BME280;44845;51.444;7.460;2023-02-08T03:53:42;101926.97;;;-0.21;62.87
59055;BME280;44845;51.444;7.460;2023-02-08T03:56:14;101928.56;;;-0.23;62.68
59055;BME280;44845;51.444;7.460;2023-02-08T03:58:46;101930.16;;;-0.25;62.49
59055;BME280;44845;51.444;7.460;2023-02-08T04:01:18;101933.09;;;-0.32;62.56
59055;BME280;44845;51.444;7.460;2023-02-08T04:03:46;101927.91;;;-0.32;62.51
59055;BME280;44845;51.444;7.460;2023-02-08T04:06:15;101934.53;;;-0.36;62.69
59055;BME280;44845;51.444;7.460;2023-02-08T04:08:40;101932.09;;;-0.35;62.00
59055;BME280;44845;51.444;7.460;2023-02-08T04:11:05;101929.50;;;-0.35;62.77
59055;BME280;44845;51.444;7.460;2023-02-08T04:13:31;101932.84;;;-0.36;63.19
59055;BME280;44845;51.444;7.460;2023-02-08T04:15:56;101930.50;;;-0.32;63.72
59055;BME280;44845;51.444;7.460;2023-02-08T04:18:22;101917.28;;;-0.37;62.79
59055;BME280;44845;51.444;7.460;2023-02-08T04:20:47;101922.75;;;-0.32;61.87
59055;BME280;44845;51.444;7.460;2023-02-08T04:23:12;101927.28;;;-0.42;62.15
59055;BME280;44845;51.444;7.460;2023-02-08T04:25:38;101931.72;;;-0.39;62.75
59055;BME280;44845;51.444;7.460;2023-02-08T04:28:03;101930.84;;;-0.40;61.82
59055;BME280;44845;51.444;7.460;2023-02-08T04:30:29;101935.22;;;-0.39;62.23
59055;BME280;44845;51.444;7.460;2023-02-08T04:32:54;101932.31;;;-0.43;61.47
59055;BME280;44845;51.444;7.460;2023-02-08T04:35:19;101934.44;;;-0.38;62.03
59055;BME280;44845;51.444;7.460;2023-02-08T04:37:45;101932.63;;;-0.39;61.37
59055;BME280;44845;51.444;7.460;2023-02-08T04:40:10;101936.00;;;-0.40;61.25
59055;BME280;44845;51.444;7.460;2023-02-08T04:42:36;101940.38;;;-0.39;61.63
59055;BME280;44845;51.444;7.460;2023-02-08T04:45:01;101932.63;;;-0.39;61.76
59055;BME280;44845;51.444;7.460;2023-02-08T04:47:27;101932.84;;;-0.36;61.64
59055;BME280;44845;51.444;7.460;2023-02-08T04:49:52;101930.59;;;-0.31;61.99
59055;BME280;44845;51.444;7.460;2023-02-08T04:52:17;101939.69;;;-0.36;62.16
59055;BME280;44845;51.444;7.460;2023-02-08T04:54:43;101937.78;;;-0.39;62.59
59055;BME280;44845;51.444;7.460;2023-02-08T04:57:11;101943.63;;;-0.41;62.45
59055;BME280;44845;51.444;7.460;2023-02-08T04:59:38;101942.53;;;-0.45;62.62
59055;BME280;44845;51.444;7.460;2023-02-08T05:02:03;101940.16;;;-0.42;62.81
59055;BME280;44845;51.444;7.460;2023-02-08T05:04:29;101947.91;;;-0.42;62.53
59055;BME280;44845;51.444;7.460;2023-02-08T05:06:55;101945.31;;;-0.42;62.55
59055;BME280;44845;51.444;7.460;2023-02-08T05:09:20;101946.78;;;-0.46;62.41
59055;BME280;44845;51.444;7.460;2023-02-08T05:11:46;101946.31;;;-0.40;62.21
59055;BME280;44845;51.444;7.460;2023-02-08T05:14:11;101943.53;;;-0.43;63.01
59055;BME280;44845;51.444;7.460;2023-02-08T05:16:36;101946.09;;;-0.43;63.60
59055;BME280;44845;51.444;7.460;2023-02-08T05:19:02;101948.25;;;-0.49;63.53
59055;BME280;44845;51.444;7.460;2023-02-08T05:21:27;101948.91;;;-0.40;63.40
59055;BME280;44845;51.444;7.460;2023-02-08T05:23:52;101944.97;;;-0.47;63.04
59055;BME280;44845;51.444;7.460;2023-02-08T05:26:18;101950.59;;;-0.40;63.09
59055;BME280;44845;51.444;7.460;2023-02-08T05:28:43;101949.44;;;-0.44;62.52
59055;BME280;44845;51.444;7.460;2023-02-08T05:33:34;101949.25;;;-0.47;62.91
59055;BME280;44845;51.444;7.460;2023-02-08T05:35:59;101947.22;;;-0.51;62.54
59055;BME280;44845;51.444;7.460;2023-02-08T05:38:25;101939.81;;;-0.47;61.21
59055;BME280;44845;51.444;7.460;2023-02-08T05:40:50;101934.47;;;-0.50;61.37
59055;BME280;44845;51.444;7.460;2023-02-08T05:43:15;101935.13;;;-0.52;61.05
59055;BME280;44845;51.444;7.460;2023-02-08T05:45:41;101943.88;;;-0.50;61.66
59055;BME280;44845;51.444;7.460;2023-02-08T05:48:06;101944.97;;;-0.47;61.81
59055;BME280;44845;51.444;7.460;2023-02-08T05:50:31;101951.25;;;-0.43;60.90
59055;BME280;44845;51.444;7.460;2023-02-08T05:52:57;101952.59;;;-0.48;61.11
59055;BME280;44845;51.444;7.460;2023-02-08T05:55:22;101954.41;;;-0.47;61.15
59055;BME280;44845;51.444;7.460;2023-02-08T05:57:47;101952.59;;;-0.48;60.85
59055;BME280;44845;51.444;7.460;2023-02-08T06:00:13;101958.44;;;-0.51;61.60
59055;BME280;44845;51.444;7.460;2023-02-08T06:02:39;101965.16;;;-0.53;61.62
59055;BME280;44845;51.444;7.460;2023-02-08T06:05:04;101960.47;;;-0.59;61.81
59055;BME280;44845;51.444;7.460;2023-02-08T06:07:30;101953.84;;;-0.55;61.00
59055;BME280;44845;51.444;7.460;2023-02-08T06:09:55;101958.44;;;-0.51;60.94
59055;BME280;44845;51.444;7.460;2023-02-08T06:12:20;101958.88;;;-0.57;60.77
59055;BME280;44845;51.444;7.460;2023-02-08T06:14:46;101951.06;;;-0.58;59.70
59055;BME280;44845;51.444;7.460;2023-02-08T06:17:11;101951.72;;;-0.61;59.67
59055;BME280;44845;51.444;7.460;2023-02-08T06:19:37;101946.56;;;-0.61;59.10
59055;BME280;44845;51.444;7.460;2023-02-08T06:22:02;101947.72;;;-0.69;60.57
59055;BME280;44845;51.444;7.460;2023-02-08T06:24:27;101961.03;;;-0.63;60.11
59055;BME280;44845;51.444;7.460;2023-02-08T06:26:53;101957.88;;;-0.59;60.05
59055;BME280;44845;51.444;7.460;2023-02-08T06:29:18;101964.50;;;-0.62;60.02
59055;BME280;44845;51.444;7.460;2023-02-08T06:31:43;101960.25;;;-0.62;59.52
59055;BME280;44845;51.444;7.460;2023-02-08T06:34:09;101955.09;;;-0.62;59.44
59055;BME280;44845;51.444;7.460;2023-02-08T06:36:34;101954.19;;;-0.62;58.86
59055;BME280;44845;51.444;7.460;2023-02-08T06:38:59;101950.81;;;-0.61;59.03
59055;BME280;44845;51.444;7.460;2023-02-08T06:41:25;101954.19;;;-0.62;59.21
59055;BME280;44845;51.444;7.460;2023-02-08T06:43:51;101944.13;;;-0.59;58.85
59055;BME280;44845;51.444;7.460;2023-02-08T06:46:16;101941.63;;;-0.58;58.25
59055;BME280;44845;51.444;7.460;2023-02-08T06:48:42;101936.72;;;-0.54;57.71
59055;BME280;44845;51.444;7.460;2023-02-08T06:51:07;101938.25;;;-0.57;57.94
59055;BME280;44845;51.444;7.460;2023-02-08T06:53:33;101937.13;;;-0.48;57.91
59055;BME280;44845;51.444;7.460;2023-02-08T06:55:58;101930.66;;;-0.55;57.54
59055;BME280;44845;51.444;7.460;2023-02-08T06:58:23;101936.22;;;-0.49;56.96
59055;BME280;44845;51.444;7.460;2023-02-08T07:00:51;101933.78;;;-0.47;57.76
59055;BME280;44845;51.444;7.460;2023-02-08T07:03:16;101938.38;;;-0.43;57.84
59055;BME280;44845;51.444;7.460;2023-02-08T07:05:42;101940.72;;;-0.46;57.24
59055;BME280;44845;51.444;7.460;2023-02-08T07:08:08;101939.94;;;-0.45;56.53
59055;BME280;44845;51.444;7.460;2023-02-08T07:10:34;101933.78;;;-0.47;56.48
59055;BME280;44845;51.444;7.460;2023-02-08T07:13:03;101931.56;;;-0.54;57.25
59055;BME280;44845;51.444;7.460;2023-02-08T07:15:29;101925.91;;;-0.49;57.21
59055;BME280;44845;51.444;7.460;2023-02-08T07:18:02;101924.47;;;-0.45;56.93
59055;BME280;44845;51.444;7.460;2023-02-08T07:20:31;101922.13;;;-0.42;56.42
59055;BME280;44845;51.444;7.460;2023-02-08T07:22:58;101922.13;;;-0.42;55.86
59055;BME280;44845;51.444;7.460;2023-02-08T07:25:24;101921.31;;;-0.41;57.14
59055;BME280;44845;51.444;7.460;2023-02-08T07:27:50;101921.09;;;-0.44;57.27
59055;BME280;44845;51.444;7.460;2023-02-08T07:30:21;101921.53;;;-0.38;55.93
59055;BME280;44845;51.444;7.460;2023-02-08T07:32:52;101924.34;;;-0.35;55.23
59055;BME280;44845;51.444;7.460;2023-02-08T07:35:17;101920.06;;;-0.34;54.56
59055;BME280;44845;51.444;7.460;2023-02-08T07:37:42;101915.81;;;-0.33;55.14
59055;BME280;44845;51.444;7.460;2023-02-08T07:40:08;101920.50;;;-0.28;55.05
59055;BME280;44845;51.444;7.460;2023-02-08T07:42:34;101919.69;;;-0.27;55.62
59055;BME280;44845;51.444;7.460;2023-02-08T07:44:59;101917.34;;;-0.24;55.77
59055;BME280;44845;51.444;7.460;2023-02-08T07:47:25;101918.34;;;-0.21;56.43
59055;BME280;44845;51.444;7.460;2023-02-08T07:49:53;101918.25;;;-0.23;56.68
59055;BME280;44845;51.444;7.460;2023-02-08T07:52:18;101916.44;;;-0.24;56.21
59055;BME280;44845;51.444;7.460;2023-02-08T07:54:44;101914.84;;;-0.22;56.35
59055;BME280;44845;51.444;7.460;2023-02-08T07:57:12;101919.47;;;-0.18;55.50
59055;BME280;44845;51.444;7.460;2023-02-08T08:00:04;101917.66;;;-0.19;55.62
59055;BME280;44845;51.444;7.460;2023-02-08T08:02:30;101921.25;;;-0.17;55.74
59055;BME280;44845;51.444;7.460;2023-02-08T08:04:58;101917.56;;;-0.20;55.08
59055;BME280;44845;51.444;7.460;2023-02-08T08:07:26;101915.97;;;-0.18;55.57
59055;BME280;44845;51.444;7.460;2023-02-08T08:09:54;101924.03;;;-0.14;55.71
59055;BME280;44845;51.444;7.460;2023-02-08T08:12:20;101921.69;;;-0.10;56.50
59055;BME280;44845;51.444;7.460;2023-02-08T08:14:51;101922.69;;;-0.08;56.93
59055;BME280;44845;51.444;7.460;2023-02-08T08:17:17;101922.47;;;-0.12;57.29
59055;BME280;44845;51.444;7.460;2023-02-08T08:19:42;101917.75;;;-0.05;58.13
59055;BME280;44845;51.444;7.460;2023-02-08T08:22:08;101917.94;;;-0.02;57.74
59055;BME280;44845;51.444;7.460;2023-02-08T08:24:33;101919.06;;;0.02;57.96
59055;BME280;44845;51.444;7.460;2023-02-08T08:27:07;101922.84;;;0.07;58.04
59055;BME280;44845;51.444;7.460;2023-02-08T08:29:34;101923.75;;;0.07;58.11
59055;BME280;44845;51.444;7.460;2023-02-08T08:32:00;101923.75;;;0.07;58.41
59055;BME280;44845;51.444;7.460;2023-02-08T08:34:26;101922.03;;;0.08;58.01
59055;BME280;44845;51.444;7.460;2023-02-08T08:36:58;101920.38;;;0.08;57.27
59055;BME280;44845;51.444;7.460;2023-02-08T08:39:27;101929.09;;;0.10;56.86
59055;BME280;44845;51.444;7.460;2023-02-08T08:41:56;101922.16;;;0.09;56.89
59055;BME280;44845;51.444;7.460;2023-02-08T08:44:25;101921.34;;;0.10;56.94
59055;BME280;44845;51.444;7.460;2023-02-08T08:46:54;101920.31;;;0.20;56.37
59055;BME280;44845;51.444;7.460;2023-02-08T08:49:23;101918.41;;;0.18;56.49
59055;BME280;44845;51.444;7.460;2023-02-08T08:51:53;101913.09;;;0.28;55.56
59055;BME280;44845;51.444;7.460;2023-02-08T08:54:19;101907.94;;;0.28;54.95
59055;BME280;44845;51.444;7.460;2023-02-08T08:56:45;101911.28;;;0.27;55.04
59055;BME280;44845;51.444;7.460;2023-02-08T08:59:19;101915.28;;;0.36;55.03
59055;BME280;44845;51.444;7.460;2023-02-08T09:01:44;101902.47;;;0.37;54.42
59055;BME280;44845;51.444;7.460;2023-02-08T09:04:10;101911.13;;;0.38;53.43
59055;BME280;44845;51.444;7.460;2023-02-08T09:06:35;101897.97;;;0.47;53.89
59055;BME280;44845;51.444;7.460;2023-02-08T09:09:02;101902.41;;;0.49;53.18
59055;BME280;44845;51.444;7.460;2023-02-08T09:11:30;101897.66;;;0.55;53.29
59055;BME280;44845;51.444;7.460;2023-02-08T09:13:57;101903.03;;;0.59;53.21
59055;BME280;44845;51.444;7.460;2023-02-08T09:16:23;101902.44;;;0.63;52.68
59055;BME280;44845;51.444;7.460;2023-02-08T09:18:49;101902.81;;;0.69;52.98
59055;BME280;44845;51.444;7.460;2023-02-08T09:21:17;101905.63;;;0.72;53.01
59055;BME280;44845;51.444;7.460;2023-02-08T09:23:43;101910.41;;;0.80;52.77
59055;BME280;44845;51.444;7.460;2023-02-08T09:26:14;101911.59;;;0.85;52.10
59055;BME280;44845;51.444;7.460;2023-02-08T09:28:39;101902.38;;;0.88;52.08
59055;BME280;44845;51.444;7.460;2023-02-08T09:31:17;101899.06;;;0.91;53.26
59055;BME280;44845;51.444;7.460;2023-02-08T09:33:43;101897.59;;;0.95;52.93
59055;BME280;44845;51.444;7.460;2023-02-08T09:36:09;101895.09;;;0.96;53.27
59055;BME280;44845;51.444;7.460;2023-02-08T09:38:36;101891.53;;;0.94;53.83
59055;BME280;44845;51.444;7.460;2023-02-08T09:46:29;101893.09;;;1.19;53.71
59055;BME280;44845;51.444;7.460;2023-02-08T09:48:59;101889.22;;;1.26;53.48
59055;BME280;44845;51.444;7.460;2023-02-08T09:51:34;101902.63;;;1.34;52.70
59055;BME280;44845;51.444;7.460;2023-02-08T09:54:15;101899.63;;;1.41;53.68
59055;BME280;44845;51.444;7.460;2023-02-08T09:56:44;101897.34;;;1.46;52.71
59055;BME280;44845;51.444;7.460;2023-02-08T09:59:15;101903.00;;;1.54;53.01
59055;BME280;44845;51.444;7.460;2023-02-08T10:01:41;101905.94;;;1.60;52.91
59055;BME280;44845;51.444;7.460;2023-02-08T10:04:35;101906.97;;;1.62;52.66
59055;BME280;44845;51.444;7.460;2023-02-08T10:07:01;101903.66;;;1.65;50.94
59055;BME280;44845;51.444;7.460;2023-02-08T10:09:27;101909.56;;;1.62;53.10
59055;BME280;44845;51.444;7.460;2023-02-08T10:12:13;101900.47;;;1.69;52.24
59055;BME280;44845;51.444;7.460;2023-02-08T10:14:55;101902.91;;;1.81;51.57
59055;BME280;44845;51.444;7.460;2023-02-08T10:24:03;101913.94;;;2.07;46.74
59055;BME280;44845;51.444;7.460;2023-02-08T10:26:18;101907.34;;;2.12;45.08
59055;BME280;44845;51.444;7.460;2023-02-08T10:28:59;101899.34;;;2.23;46.94
59055;BME280;44845;51.444;7.460;2023-02-08T10:34:53;101899.91;;;2.32;45.83
59055;BME280;44845;51.444;7.460;2023-02-08T10:37:30;101896.06;;;2.41;46.79
59055;BME280;44845;51.444;7.460;2023-02-08T10:40:13;101890.97;;;2.42;41.49
59055;BME280;44845;51.444;7.460;2023-02-08T10:42:41;101887.75;;;2.46;41.57
59055;BME280;44845;51.444;7.460;2023-02-08T10:47:54;101890.72;;;2.68;38.64
59055;BME280;44845;51.444;7.460;2023-02-08T10:53:04;101883.97;;;2.87;40.21
59055;BME280;44845;51.444;7.460;2023-02-08T10:55:31;101880.56;;;2.88;41.20
59055;BME280;44845;51.444;7.460;2023-02-08T10:58:00;101884.31;;;2.93;39.76
59055;BME280;44845;51.444;7.460;2023-02-08T11:05:38;101864.63;;;3.12;36.75
59055;BME280;44845;51.444;7.460;2023-02-08T11:08:09;101863.31;;;3.20;39.76
59055;BME280;44845;51.444;7.460;2023-02-08T11:10:38;101860.91;;;3.23;36.92
59055;BME280;44845;51.444;7.460;2023-02-08T11:13:16;101858.97;;;3.19;35.81
59055;BME280;44845;51.444;7.460;2023-02-08T11:15:55;101852.41;;;3.26;32.86
59055;BME280;44845;51.444;7.460;2023-02-08T11:18:30;101850.31;;;3.35;34.44
59055;BME280;44845;51.444;7.460;2023-02-08T11:21:05;101846.81;;;3.35;34.04
59055;BME280;44845;51.444;7.460;2023-02-08T11:23:33;101839.38;;;3.41;34.07
59055;BME280;44845;51.444;7.460;2023-02-08T11:29:18;101829.66;;;3.70;33.66
59055;BME280;44845;51.444;7.460;2023-02-08T11:32:01;101820.72;;;3.82;37.19
59055;BME280;44845;51.444;7.460;2023-02-08T11:34:35;101812.38;;;3.71;34.76
59055;BME280;44845;51.444;7.460;2023-02-08T11:37:20;101812.44;;;3.89;33.77
59055;BME280;44845;51.444;7.460;2023-02-08T11:39:54;101812.19;;;3.85;33.27
59055;BME280;44845;51.444;7.460;2023-02-08T11:42:21;101815.50;;;3.99;32.06
59055;BME280;44845;51.444;7.460;2023-02-08T11:44:55;101815.38;;;3.96;33.08
59055;BME280;44845;51.444;7.460;2023-02-08T11:47:27;101818.19;;;4.00;33.17
59055;BME280;44845;51.444;7.460;2023-02-08T11:49:55;101819.69;;;4.13;34.87
59055;BME280;44845;51.444;7.460;2023-02-08T11:52:25;101822.44;;;4.16;36.72
59055;BME280;44845;51.444;7.460;2023-02-08T11:54:53;101817.53;;;4.23;39.94
59055;BME280;44845;51.444;7.460;2023-02-08T11:57:21;101817.41;;;4.20;40.68
59055;BME280;44845;51.444;7.460;2023-02-08T11:59:48;101814.72;;;4.18;39.01
59055;BME280;44845;51.444;7.460;2023-02-08T12:02:31;101807.66;;;4.15;38.31
59055;BME280;44845;51.444;7.460;2023-02-08T12:04:58;101810.59;;;4.22;36.50
59055;BME280;44845;51.444;7.460;2023-02-08T12:21:24;101784.25;;;4.32;32.35
59055;BME280;44845;51.444;7.460;2023-02-08T12:27:20;101769.41;;;4.48;33.65
59055;BME280;44845;51.444;7.460;2023-02-08T12:30:15;101774.75;;;4.51;33.98
59055;BME280;44845;51.444;7.460;2023-02-08T12:36:19;101765.09;;;4.67;36.27
59055;BME280;44845;51.444;7.460;2023-02-08T12:42:14;101760.03;;;4.70;34.71
59055;BME280;44845;51.444;7.460;2023-02-08T12:47:22;101755.13;;;4.76;35.89
59055;BME280;44845;51.444;7.460;2023-02-08T12:52:47;101751.47;;;4.72;36.43
59055;BME280;44845;51.444;7.460;2023-02-08T12:55:28;101757.53;;;4.71;35.08
59055;BME280;44845;51.444;7.460;2023-02-08T12:58:23;101753.34;;;4.75;32.40
59055;BME280;44845;51.444;7.460;2023-02-08T13:00:50;101745.63;;;4.77;33.04
59055;BME280;44845;51.444;7.460;2023-02-08T13:03:32;101746.81;;;4.83;34.08
59055;BME280;44845;51.444;7.460;2023-02-08T13:06:14;101746.41;;;4.94;37.30
59055;BME280;44845;51.444;7.460;2023-02-08T13:08:57;101738.72;;;4.97;36.88
59055;BME280;44845;51.444;7.460;2023-02-08T13:14:45;101732.38;;;4.90;37.36
59055;BME280;44845;51.444;7.460;2023-02-08T13:17:26;101728.75;;;4.87;34.57
59055;BME280;44845;51.444;7.460;2023-02-08T13:22:31;101709.22;;;4.96;37.39
59055;BME280;44845;51.444;7.460;2023-02-08T13:24:58;101713.56;;;4.96;37.65
59055;BME280;44845;51.444;7.460;2023-02-08T13:27:25;101706.88;;;5.01;36.50
59055;BME280;44845;51.444;7.460;2023-02-08T13:29:51;101698.28;;;5.04;37.89
59055;BME280;44845;51.444;7.460;2023-02-08T13:32:29;101700.69;;;4.99;36.51
59055;BME280;44845;51.444;7.460;2023-02-08T13:37:36;101691.91;;;4.97;36.67
59055;BME280;44845;51.444;7.460;2023-02-08T13:42:39;101679.75;;;4.96;33.07
59055;BME280;44845;51.444;7.460;2023-02-08T13:45:08;101674.97;;;5.05;34.47
59055;BME280;44845;51.444;7.460;2023-02-08T13:47:46;101676.13;;;5.12;36.32
59055;BME280;44845;51.444;7.460;2023-02-08T13:50:41;101664.22;;;5.17;37.34
59055;BME280;44845;51.444;7.460;2023-02-08T13:53:08;101659.75;;;5.15;36.14
59055;BME280;44845;51.444;7.460;2023-02-08T13:55:53;101661.13;;;5.06;32.54
59055;BME280;44845;51.444;7.460;2023-02-08T14:01:18;101658.41;;;5.23;33.66
59055;BME280;44845;51.444;7.460;2023-02-08T14:09:25;101644.94;;;5.34;36.44
59055;BME280;44845;51.444;7.460;2023-02-08T14:11:59;101638.22;;;5.39;36.81
59055;BME280;44845;51.444;7.460;2023-02-08T14:14:28;101640.50;;;5.31;36.93
59055;BME280;44845;51.444;7.460;2023-02-08T14:19:31;101632.38;;;5.23;33.68
59055;BME280;44845;51.444;7.460;2023-02-08T14:27:40;101628.50;;;5.35;38.02
59055;BME280;44845;51.444;7.460;2023-02-08T14:32:44;101625.63;;;5.28;34.78
59055;BME280;44845;51.444;7.460;2023-02-08T14:37:39;101613.47;;;5.27;38.31
59055;BME280;44845;51.444;7.460;2023-02-08T14:42:56;101609.91;;;5.25;38.25
59055;BME280;44845;51.444;7.460;2023-02-08T14:48:01;101602.44;;;5.33;38.58
59055;BME280;44845;51.444;7.460;2023-02-08T14:50:38;101602.34;;;5.32;40.08
59055;BME280;44845;51.444;7.460;2023-02-08T14:53:17;101604.19;;;5.34;38.10
59055;BME280;44845;51.444;7.460;2023-02-08T14:55:47;101601.16;;;5.23;37.90
59055;BME280;44845;51.444;7.460;2023-02-08T14:58:23;101606.94;;;5.16;38.23
59055;BME280;44845;51.444;7.460;2023-02-08T15:00:51;101599.94;;;5.15;38.22
59055;BME280;44845;51.444;7.460;2023-02-08T15:03:43;101595.81;;;5.20;38.64
59055;BME280;44845;51.444;7.460;2023-02-08T15:08:35;101580.59;;;5.29;38.66
59055;BME280;44845;51.444;7.460;2023-02-08T15:11:00;101592.03;;;5.33;38.09
59055;BME280;44845;51.444;7.460;2023-02-08T15:13:26;101588.44;;;5.31;38.55